Time;durP1;ratioP1;P1;durP2;ratioP2;P2;SDS_P1;SDS_P2;PMS_P1;PMS_P2;Temp;Humidity;BMP_temperature;BMP_pressure;BME280_temperature;BME280_humidity;BME280_pressure;Samples;Min_cycle;Max_cycle;Signal;HPM_P1;HPM_P2
2023/03/08 00:02:29;;;;;;;4.30;3.40;;;;;;;-0.50;92.98;97536.20;435729;1254;141189;-66
2023/03/08 00:12:35;;;;;;;3.40;3.10;;;;;;;-0.50;93.09;97547.02;437631;1254;140759;-66
2023/03/08 00:22:58;;;;;;;4.30;3.90;;;;;;;-0.43;93.58;97545.13;442223;1253;142997;-67
2023/03/08 00:33:04;;;;;;;5.40;4.90;;;;;;;-0.46;93.49;97547.20;440905;1254;140876;-68
2023/03/08 00:43:11;;;;;;;5.70;4.60;;;;;;;-0.39;93.76;97544.64;438504;1255;140709;-68
2023/03/08 00:53:17;;;;;;;5.90;4.90;;;;;;;-0.37;94.09;97549.31;447686;1251;142552;-67
2023/03/08 01:03:23;;;;;;;6.40;4.30;;;;;;;-0.35;94.02;97556.95;435668;1255;140677;-66
2023/03/08 01:13:28;;;;;;;;;;;;;;;-0.44;93.83;97554.33;434265;1254;141512;-67
2023/03/08 01:23:34;;;;;;;5.60;4.10;;;;;;;-0.59;93.80;97563.14;444548;1255;128470;-66
2023/03/08 01:33:41;;;;;;;5.20;4.70;;;;;;;-0.62;93.81;97562.61;438518;1254;141053;-68
2023/03/08 01:43:45;;;;;;;;;;;;;;;-0.79;94.28;97566.39;434357;1253;141654;-66
2023/03/08 01:53:53;;;;;;;6.60;5.40;;;;;;;-0.93;94.85;97556.77;441488;1251;131259;-67
2023/03/08 02:03:59;;;;;;;8.50;5.60;;;;;;;-0.98;95.03;97563.38;443431;1254;141921;-67
2023/03/08 02:14:05;;;;;;;4.50;3.40;;;;;;;-1.07;95.01;97565.50;435452;1256;141491;-67
2023/03/08 02:24:18;;;;;;;;;;;;;;;-1.13;95.26;97573.68;435672;1255;141461;-67
2023/03/08 02:34:24;;;;;;;5.40;4.60;;;;;;;-1.24;95.15;97571.31;432754;1256;129027;-66
2023/03/08 02:44:29;;;;;;;5.20;3.50;;;;;;;-1.33;95.38;97586.66;439461;1255;141220;-66
2023/03/08 02:54:35;;;;;;;4.90;3.20;;;;;;;-1.41;95.73;97610.38;442606;1255;141204;-67
2023/03/08 03:04:40;;;;;;;3.50;2.70;;;;;;;-1.40;95.74;97629.22;438066;1256;142733;-65
2023/03/08 03:14:46;;;;;;;4.40;3.30;;;;;;;-1.40;95.73;97635.76;433535;1251;141499;-66
2023/03/08 03:24:53;;;;;;;6.40;3.30;;;;;;;-1.43;95.61;97646.53;434972;1254;162846;-66
2023/03/08 03:34:58;;;;;;;5.20;3.10;;;;;;;-1.47;95.67;97657.52;433584;1254;142391;-67
2023/03/08 03:45:05;;;;;;;3.30;2.40;;;;;;;-1.49;96.07;97672.89;434013;1256;140686;-67
2023/03/08 03:55:12;;;;;;;3.00;2.40;;;;;;;-1.51;95.76;97683.29;444671;1252;142537;-67
2023/03/08 04:05:18;;;;;;;3.60;2.60;;;;;;;-1.49;96.12;97685.58;446133;1251;140894;-67
2023/03/08 04:15:23;;;;;;;6.70;3.30;;;;;;;-1.49;95.95;97689.89;440468;1254;141348;-66
2023/03/08 04:25:29;;;;;;;3.20;2.60;;;;;;;-1.53;95.99;97695.05;435678;1254;141782;-66
2023/03/08 04:35:35;;;;;;;10.60;4.30;;;;;;;-1.66;96.18;97712.08;433874;1254;141868;-66
2023/03/08 04:45:41;;;;;;;4.40;4.00;;;;;;;-1.74;96.29;97722.52;437553;1253;140861;-67
2023/03/08 04:55:46;;;;;;;4.90;3.90;;;;;;;-1.88;96.20;97726.59;438408;1251;144886;-66
2023/03/08 05:05:55;;;;;;;4.60;3.60;;;;;;;-1.91;96.71;97737.88;434021;1256;140970;-67
2023/03/08 05:16:01;;;;;;;4.10;3.10;;;;;;;-1.88;97.01;97747.02;433820;1254;142345;-72
2023/03/08 05:26:08;;;;;;;4.90;3.50;;;;;;;-1.86;96.82;97755.86;443823;1251;143171;-70
2023/03/08 05:36:15;;;;;;;5.90;3.60;;;;;;;-1.83;96.82;97761.89;436780;1256;141006;-71
2023/03/08 05:46:21;;;;;;;6.30;4.20;;;;;;;-1.77;97.23;97779.48;441512;1251;142789;-70
2023/03/08 05:56:27;;;;;;;4.50;3.80;;;;;;;-1.63;97.12;97793.48;440716;1251;142654;-71
2023/03/08 06:06:33;;;;;;;8.00;5.00;;;;;;;-1.48;96.80;97811.00;445591;1253;140934;-71
2023/03/08 06:16:37;;;;;;;;;;;;;;;-1.27;96.91;97825.19;440453;1251;141181;-70
2023/03/08 06:26:43;;;;;;;6.10;5.40;;;;;;;-1.06;96.74;97838.71;446850;1251;127695;-71
2023/03/08 06:36:50;;;;;;;7.30;5.80;;;;;;;-0.76;96.38;97853.86;444814;1252;140882;-72
2023/03/08 06:46:56;;;;;;;7.60;6.80;;;;;;;-0.34;95.89;97869.13;445409;1253;142201;-72
2023/03/08 06:57:02;;;;;;;10.00;6.40;;;;;;;0.11;95.44;97875.93;450127;1253;141969;-70
2023/03/08 07:07:11;;;;;;;8.80;6.00;;;;;;;1.26;95.22;97882.69;449244;1251;142587;-71
2023/03/08 07:17:17;;;;;;;7.20;5.00;;;;;;;4.89;92.77;97887.60;450341;1251;142964;-72
2023/03/08 07:27:23;;;;;;;5.70;5.00;;;;;;;4.28;86.65;97895.59;450315;1251;140856;-72
2023/03/08 07:37:28;;;;;;;6.20;5.40;;;;;;;4.68;88.22;97904.93;449594;1251;142102;-72
2023/03/08 07:47:34;;;;;;;4.00;3.60;;;;;;;9.11;85.26;97914.81;448406;1252;141553;-74
2023/03/08 07:57:40;;;;;;;7.50;4.90;;;;;;;13.31;76.76;97915.81;450297;1250;142183;-72
2023/03/08 08:07:47;;;;;;;7.10;4.90;;;;;;;10.59;72.36;97934.17;449597;1251;141573;-72
2023/03/08 08:17:53;;;;;;;6.00;5.20;;;;;;;10.73;69.93;97940.88;450358;1251;141542;-72
2023/03/08 08:27:59;;;;;;;5.80;5.20;;;;;;;10.00;68.47;97951.57;444644;1251;141765;-72
2023/03/08 08:38:04;;;;;;;5.10;3.30;;;;;;;7.42;68.20;97962.62;440673;1251;141696;-73
2023/03/08 08:48:10;;;;;;;4.80;3.60;;;;;;;9.00;69.00;97965.73;450322;1251;141635;-74
2023/03/08 08:58:16;;;;;;;4.10;3.20;;;;;;;13.23;64.91;97955.41;449744;1251;141489;-72
2023/03/08 09:08:22;;;;;;;7.30;5.50;;;;;;;13.58;60.94;97953.15;450291;1251;141221;-73
2023/03/08 09:18:27;;;;;;;6.70;4.00;;;;;;;12.15;56.98;97950.80;450286;1251;142197;-73
2023/03/08 09:28:34;;;;;;;5.10;4.60;;;;;;;9.93;57.23;97955.90;449570;1252;141452;-72
2023/03/08 09:38:39;;;;;;;5.90;4.90;;;;;;;8.96;58.15;97959.13;450347;1251;186456;-73
2023/03/08 09:48:49;;;;;;;5.30;3.80;;;;;;;8.33;59.20;97959.94;445799;1251;141085;-72
2023/03/08 09:58:59;;;;;;;4.30;3.20;;;;;;;7.51;59.24;97962.96;449859;1252;211432;-74
2023/03/08 10:09:15;;;;;;;4.90;3.30;;;;;;;5.73;59.85;97973.88;448726;1251;140537;-74
2023/03/08 10:19:28;;;;;;;3.10;2.50;;;;;;;5.95;61.28;97960.14;435695;1254;141453;-75
2023/03/08 10:29:34;;;;;;;4.40;3.70;;;;;;;6.08;61.01;97961.20;450407;1251;184294;-73
2023/03/08 10:39:51;;;;;;;5.00;3.40;;;;;;;6.33;60.91;97956.13;450373;1251;143643;-74
2023/03/08 10:50:16;;;;;;;2.70;2.40;;;;;;;5.42;59.96;97949.46;449935;1251;208033;-73
2023/03/08 11:00:30;;;;;;;3.50;2.90;;;;;;;4.93;60.70;97943.73;450428;1251;141553;-72
2023/03/08 11:10:39;;;;;;;4.20;3.20;;;;;;;4.90;61.36;97931.24;449582;1251;140755;-73
2023/03/08 11:20:49;;;;;;;5.90;3.40;;;;;;;5.00;61.47;97916.35;448234;1251;2874245;-73
2023/03/08 11:31:08;;;;;;;4.90;3.80;;;;;;;5.17;61.61;97907.41;449683;1251;141636;-71
2023/03/08 11:41:23;;;;;;;6.00;3.90;;;;;;;5.14;61.19;97886.83;450393;1252;141582;-73
2023/03/08 11:51:37;;;;;;;9.50;5.00;;;;;;;4.66;61.84;97894.36;439650;1251;141696;-71
2023/03/08 12:01:48;;;;;;;11.40;5.50;;;;;;;4.60;61.57;97896.01;449478;1251;141233;-73
2023/03/08 12:11:58;;;;;;;6.50;4.70;;;;;;;4.38;62.26;97892.75;450441;1251;141391;-72
2023/03/08 12:22:17;;;;;;;7.90;5.60;;;;;;;4.27;62.77;97885.16;449741;1251;140521;-73
2023/03/08 12:32:24;;;;;;;7.70;4.30;;;;;;;4.43;63.37;97883.95;450459;1251;141310;-72
2023/03/08 12:42:36;;;;;;;;;;;;;;;4.46;63.27;97880.29;450415;1252;142090;-74
2023/03/08 12:52:42;;;;;;;8.00;5.20;;;;;;;4.67;63.41;97873.69;449900;1253;127806;-73
2023/03/08 13:02:58;;;;;;;5.50;4.70;;;;;;;4.78;63.48;97862.57;450391;1251;140272;-72
2023/03/08 13:13:21;;;;;;;10.00;4.70;;;;;;;5.00;63.16;97841.95;449685;1253;141153;-73
2023/03/08 13:23:49;;;;;;;6.80;4.80;;;;;;;4.79;62.70;97830.42;450509;1251;141644;-72
2023/03/08 13:33:56;;;;;;;8.30;5.30;;;;;;;4.37;63.25;97815.16;449712;1253;141117;-71
2023/03/08 13:44:06;;;;;;;9.20;5.40;;;;;;;4.26;63.84;97807.23;450501;1252;140401;-71
2023/03/08 13:54:22;;;;;;;12.70;6.10;;;;;;;4.17;63.92;97802.27;450343;1251;141057;-71
2023/03/08 14:04:30;;;;;;;9.00;6.50;;;;;;;4.05;64.21;97793.71;449700;1252;142648;-71
2023/03/08 14:14:39;;;;;;;11.00;6.50;;;;;;;3.99;64.23;97780.45;450436;1251;140918;-71
2023/03/08 14:24:53;;;;;;;15.20;9.40;;;;;;;4.02;64.35;97777.13;450427;1252;201489;-72
2023/03/08 14:35:14;;;;;;;15.90;9.80;;;;;;;3.91;64.47;97772.48;450121;1251;195981;-71
2023/03/08 14:45:23;;;;;;;13.40;9.60;;;;;;;3.96;64.84;97758.48;450454;1253;142832;-71
2023/03/08 14:55:32;;;;;;;11.20;7.90;;;;;;;3.84;65.01;97751.65;445393;1253;141896;-71
2023/03/08 15:05:38;;;;;;;10.10;7.80;;;;;;;3.44;66.23;97735.34;450392;1252;142616;-73
2023/03/08 15:15:44;;;;;;;12.70;9.40;;;;;;;3.11;67.65;97729.65;443137;1253;142511;-72
2023/03/08 15:25:51;;;;;;;16.20;11.10;;;;;;;2.66;69.18;97720.67;444854;1253;199004;-72
2023/03/08 15:35:57;;;;;;;13.50;10.20;;;;;;;2.15;70.94;97720.61;433260;1254;141856;-71
2023/03/08 15:46:03;;;;;;;16.50;12.30;;;;;;;1.84;72.63;97708.60;448067;1252;141744;-73
2023/03/08 15:56:09;;;;;;;18.90;12.90;;;;;;;1.72;73.88;97701.04;446162;1252;143010;-73
2023/03/08 16:06:17;;;;;;;15.10;11.20;;;;;;;1.55;74.71;97690.59;450174;1252;143428;-73
2023/03/08 16:16:22;;;;;;;17.30;11.40;;;;;;;1.41;75.77;97686.05;449533;1252;142522;-73
2023/03/08 16:26:47;;;;;;;19.10;14.00;;;;;;;1.28;76.45;97688.52;450332;1253;142427;-73
2023/03/08 16:36:54;;;;;;;24.40;17.10;;;;;;;1.05;77.14;97676.66;447891;1253;163875;-74
2023/03/08 16:47:00;;;;;;;22.20;16.90;;;;;;;0.90;77.89;97677.52;450234;1252;142561;-74
2023/03/08 16:57:06;;;;;;;17.50;13.60;;;;;;;0.74;78.45;97683.21;450335;1253;142273;-72
2023/03/08 17:07:23;;;;;;;21.90;14.30;;;;;;;0.61;79.01;97685.23;449462;1253;142438;-73
2023/03/08 17:17:29;;;;;;;19.00;13.70;;;;;;;0.49;79.76;97683.52;443311;1253;142117;-74
2023/03/08 17:27:34;;;;;;;27.00;19.20;;;;;;;0.34;80.58;97668.23;442038;1255;142272;-75
2023/03/08 17:37:41;;;;;;;30.70;21.20;;;;;;;0.19;81.53;97661.46;435787;1252;142357;-75
2023/03/08 17:47:45;;;;;;;;;;;;;;;0.08;82.18;97652.77;442102;1252;144517;-74
2023/03/08 17:57:51;;;;;;;28.30;19.20;;;;;;;-0.03;83.27;97654.54;449748;1254;129501;-75
2023/03/08 18:07:57;;;;;;;30.70;21.60;;;;;;;-0.10;84.53;97651.77;440445;1253;141749;-77
2023/03/08 18:18:03;;;;;;;27.10;19.30;;;;;;;-0.22;85.78;97635.00;448056;1252;141313;-76
2023/03/08 18:28:09;;;;;;;24.20;17.70;;;;;;;-0.26;87.34;97614.63;442032;1253;144088;-76
2023/03/08 18:38:15;;;;;;;26.80;18.60;;;;;;;-0.23;88.11;97594.88;450225;1253;143501;-77
2023/03/08 18:48:21;;;;;;;25.00;17.70;;;;;;;-0.21;89.00;97573.58;449161;1255;142975;-76
2023/03/08 18:58:25;;;;;;;;;;;;;;;-0.20;90.27;97560.82;449592;1252;142017;-72
2023/03/08 19:08:32;;;;;;;24.50;16.00;;;;;;;-0.20;90.88;97535.88;450452;1253;128648;-69
2023/03/08 19:18:37;;;;;;;23.20;16.30;;;;;;;-0.22;91.86;97514.83;447067;1255;142177;-69
2023/03/08 19:28:43;;;;;;;21.20;15.80;;;;;;;-0.24;93.04;97501.48;449282;1252;142198;-69
2023/03/08 19:38:49;;;;;;;25.00;17.10;;;;;;;-0.25;94.48;97486.45;450221;1253;142393;-69
2023/03/08 19:48:56;;;;;;;24.90;17.80;;;;;;;-0.25;94.86;97480.41;449378;1253;142724;-68
2023/03/08 19:59:02;;;;;;;23.60;17.90;;;;;;;-0.27;95.27;97475.04;450126;1254;143035;-68
2023/03/08 20:09:08;;;;;;;;;;;;;;;-0.24;95.49;97468.67;450177;1254;142911;-68
2023/03/08 20:19:14;;;;;;;19.60;14.00;;;;;;;-0.21;95.67;97458.71;449688;1254;186813;-67
2023/03/08 20:29:19;;;;;;;22.30;15.00;;;;;;;-0.21;95.73;97444.64;450080;1256;142281;-66
2023/03/08 20:39:25;;;;;;;17.90;13.70;;;;;;;-0.29;96.03;97433.83;450183;1252;142806;-68
2023/03/08 20:49:31;;;;;;;16.60;11.70;;;;;;;-0.28;96.09;97423.34;449368;1251;142476;-69
2023/03/08 20:59:37;;;;;;;16.10;11.50;;;;;;;-0.30;96.14;97413.10;450102;1251;142736;-67
2023/03/08 21:09:44;;;;;;;15.50;10.80;;;;;;;-0.32;96.58;97399.14;450166;1251;144425;-68
2023/03/08 21:19:50;;;;;;;14.60;11.50;;;;;;;-0.33;96.86;97391.26;446026;1251;199033;-68
2023/03/08 21:29:57;;;;;;;15.20;12.20;;;;;;;-0.31;96.87;97393.70;450175;1254;154130;-68
2023/03/08 21:40:06;;;;;;;17.60;13.60;;;;;;;-0.25;97.32;97388.06;449319;1253;143854;-68
2023/03/08 21:50:13;;;;;;;18.10;12.30;;;;;;;-0.20;97.33;97383.67;438469;1253;142397;-69
2023/03/08 22:00:19;;;;;;;14.70;11.60;;;;;;;-0.21;97.80;97368.45;441454;1254;143862;-69
2023/03/08 22:10:25;;;;;;;13.50;9.90;;;;;;;-0.26;97.91;97364.56;434802;1251;141649;-68
2023/03/08 22:20:31;;;;;;;13.10;8.10;;;;;;;-0.32;98.11;97363.34;434933;1251;143141;-66
2023/03/08 22:30:36;;;;;;;13.00;9.70;;;;;;;-0.38;98.09;97350.79;436545;1254;142108;-69
2023/03/08 22:40:42;;;;;;;9.10;7.70;;;;;;;-0.38;98.49;97345.48;434352;1253;142212;-68
2023/03/08 22:50:48;;;;;;;10.00;7.20;;;;;;;-0.44;98.75;97333.61;449337;1253;142446;-66
2023/03/08 23:01:13;;;;;;;8.70;6.70;;;;;;;-0.51;98.77;97330.20;443652;1251;142583;-68
2023/03/08 23:11:19;;;;;;;7.30;6.30;;;;;;;-0.54;98.99;97331.21;435265;1254;141059;-67
2023/03/08 23:21:28;;;;;;;7.10;5.60;;;;;;;-0.55;99.22;97338.51;435520;1254;5330043;-68
2023/03/08 23:31:36;;;;;;;6.00;4.90;;;;;;;-0.56;99.32;97341.64;449485;1251;143142;-67
2023/03/08 23:41:42;;;;;;;7.20;6.50;;;;;;;-0.53;99.28;97346.13;440998;1251;141769;-66
2023/03/08 23:51:52;;;;;;;11.50;6.90;;;;;;;-0.57;99.38;97339.11;435278;1254;142387;-67
